No particular awareness of the weather is required.    There are no Weather-warnings


Ulpukkaniemi more information Ulpukkaniemi


Yksityisiä sääasemia lähellä:

Template documentation
and downloads

And another site


Löydät sääaseman tiedot myös:

European Weather Network



Säätiedot lähimmiltä METAR asemilta

   
EBAW - Antwerp
Päivitetty: 22-07-2018 06:50
Selkeää  
Selkeää  
   Tuuli: Länsi 2.1 m/s
Tuuli: Länsi 2.1 m/s
Lämpötila: 16°C
Kastepiste: 13°C
Kosteus: 83%
Ilmanpaine: 1015 hPa
Näkyvyys: Enemmän kuin 10 km
Pilvitiedot: Selkeää
EBAW 220350Z AUTO 27004KT CAVOK 16/13 Q1015
EBLG - Liège
Päivitetty: 22-07-2018 06:50
Selkeää  
Selkeää  
   Tuuli: Länsilounas 1 m/s
Tuuli: Länsilounas 1 m/s
Lämpötila: 13°C
Kastepiste: 10°C
Kosteus: 82%
Ilmanpaine: 1015 hPa
Näkyvyys: Enemmän kuin 10 km
Pilvitiedot: Selkeää
EBLG 220350Z 24002KT CAVOK 13/10 Q1015 NOSIG
EBCV - Mons/Bergen
Päivitetty: 21-07-2018 09:25
EI Ajankohtaista
  
  
   Tuuli: Pohjoinen 2.1 m/s
Tuuli: Pohjoinen 2.1 m/s
Lämpötila: 18°C
Kastepiste: 15°C
Kosteus: 83%
Ilmanpaine: 1012 hPa
EBCV 210625Z AUTO 35004KT //// /// 18/15 Q1012
EHBK - Maastricht
Päivitetty: 22-07-2018 06:55
Puolipilvistä  
Puolipilvistä  
   Tuuli: Länsilounas 2.1 m/s
Tuuli: Länsilounas 2.1 m/s
Lämpötila: 14°C
Kastepiste: 11°C
Kosteus: 82%
Ilmanpaine: 1015 hPa
Pilvisyys: Puolipilvistä
Näkyvyys: Enemmän kuin 10 km
Pilvitiedot: Puolipilvistä
EHBK 220355Z AUTO 25004KT 9999 NSC 14/11 Q1015 NOSIG
ELLX - Luxemburg
Päivitetty: 22-07-2018 07:20
Selkeää  
Selkeää  
   Tuuli: Luode 2.6 m/s
Tuuli: Luode 2.6 m/s
Lämpötila: 16°C
Kastepiste: 12°C
Kosteus: 77%
Ilmanpaine: 1015 hPa
Näkyvyys: Enemmän kuin 10 km
Pilvitiedot: Selkeää
ELLX 220420Z 32005KT 290V360 CAVOK 16/12 Q1015 NOSIG
EBOS - Oostende
Päivitetty: 22-07-2018 07:20
Shallow Fog, Sumua, Puolipilvistä  
Shallow Fog, Sumua, Puolipilvistä  
   Tuuli: Etelä 1.5 m/s
Tuuli: Etelä 1.5 m/s
Lämpötila: 12°C
Kastepiste: 10°C
Kosteus: 88%
Ilmanpaine: 1015 hPa
Pilvisyys: Puolipilvistä
Näkyvyys: 2 km
Pilvitiedot: Puolipilvistä
EBOS 220420Z 18003KT 1500 MIFG BR NSC 12/10 Q1015 BECMG 3000

Alkuperäinen skripti  Saratoga-weather.org Sovitettu myös templatelle  Weerstation Leuven

Laitteet joita käytämme:

Sääasema
WS3083

Sääasemaohjelma
Cumulus

Sääaseman tietokone
RaspberryPI

Palveluntarjoaja
Suncomet

WS3083

Cumulus

RaspberryPI

Suncomet